createdAt,value
2023-03-26T00:02:15.623Z,14.97
2023-03-26T00:06:18.531Z,14.98
2023-03-26T00:10:15.674Z,15.07
2023-03-26T00:14:15.420Z,14.90
2023-03-26T00:18:15.554Z,14.87
2023-03-26T00:22:15.556Z,14.55
2023-03-26T00:26:15.228Z,14.42
2023-03-26T00:30:15.265Z,14.56
2023-03-26T00:34:15.187Z,14.65
2023-03-26T00:38:16.021Z,14.51
2023-03-26T00:42:26.031Z,14.53
2023-03-26T00:46:15.219Z,14.51
2023-03-26T00:50:15.627Z,14.62
2023-03-26T00:54:15.999Z,14.65
2023-03-26T00:58:17.587Z,14.66
2023-03-26T01:02:15.441Z,14.65
2023-03-26T01:06:15.436Z,14.52
2023-03-26T01:10:15.270Z,14.59
2023-03-26T01:14:15.323Z,14.56
2023-03-26T01:18:17.381Z,14.42
2023-03-26T01:22:15.583Z,14.36
2023-03-26T01:26:15.213Z,14.11
2023-03-26T01:30:15.347Z,13.94
2023-03-26T01:34:15.240Z,13.58
2023-03-26T01:38:15.389Z,12.89
2023-03-26T01:42:15.198Z,13.42
2023-03-26T01:46:15.193Z,13.73
2023-03-26T01:50:15.051Z,13.91
2023-03-26T01:54:14.993Z,13.98
2023-03-26T01:58:14.955Z,14.08
2023-03-26T02:02:15.023Z,14.10
2023-03-26T02:06:15.073Z,13.90
2023-03-26T02:10:15.183Z,13.66
2023-03-26T02:14:15.059Z,13.77
2023-03-26T02:18:16.063Z,13.89
2023-03-26T02:22:15.655Z,13.65
2023-03-26T02:26:15.449Z,13.80
2023-03-26T02:30:16.307Z,13.84
2023-03-26T02:34:16.108Z,13.93
2023-03-26T02:38:16.609Z,13.91
2023-03-26T02:42:17.086Z,13.65
2023-03-26T02:46:16.638Z,13.69
2023-03-26T02:50:16.611Z,13.70
2023-03-26T02:54:16.177Z,13.72
2023-03-26T02:58:16.064Z,13.77
2023-03-26T03:02:17.743Z,13.77
2023-03-26T03:06:16.193Z,13.68
2023-03-26T03:10:15.987Z,13.69
2023-03-26T03:14:16.229Z,13.70
2023-03-26T03:18:16.320Z,13.27
2023-03-26T03:22:16.216Z,13.37
2023-03-26T03:26:16.317Z,13.39
2023-03-26T03:30:16.611Z,13.39
2023-03-26T03:34:16.337Z,13.34
2023-03-26T03:38:16.242Z,13.10
2023-03-26T03:42:16.360Z,12.97
2023-03-26T03:46:16.761Z,13.10
2023-03-26T03:50:16.442Z,13.13
2023-03-26T03:54:16.613Z,13.11
2023-03-26T03:58:16.483Z,13.15
2023-03-26T04:02:16.636Z,13.17
2023-03-26T04:06:16.648Z,13.11
2023-03-26T04:10:16.655Z,13.14
2023-03-26T04:14:16.801Z,13.18
2023-03-26T04:18:16.959Z,13.18
2023-03-26T04:22:17.149Z,13.19
2023-03-26T04:26:17.085Z,13.17
2023-03-26T04:30:17.631Z,13.17
2023-03-26T04:34:17.307Z,13.19
2023-03-26T04:38:17.402Z,13.17
2023-03-26T04:42:17.663Z,13.07
2023-03-26T04:46:17.626Z,13.01
2023-03-26T04:50:17.725Z,13.03
2023-03-26T04:54:17.876Z,12.90
2023-03-26T04:58:18.007Z,12.89
2023-03-26T05:02:18.110Z,12.69
2023-03-26T05:06:18.137Z,12.73
2023-03-26T05:10:18.288Z,12.83
2023-03-26T05:14:18.417Z,12.90
2023-03-26T05:18:18.638Z,12.91
2023-03-26T05:22:19.067Z,12.73
2023-03-26T05:26:19.126Z,12.73
2023-03-26T05:30:19.021Z,12.70
2023-03-26T05:34:19.035Z,12.62
2023-03-26T05:38:19.110Z,12.66
2023-03-26T05:42:19.761Z,12.42
2023-03-26T05:46:19.775Z,12.51
2023-03-26T05:50:19.744Z,12.67
2023-03-26T05:54:20.076Z,12.78
2023-03-26T05:58:20.014Z,12.89
2023-03-26T06:02:20.699Z,12.96
2023-03-26T06:06:20.444Z,12.96
2023-03-26T06:10:20.467Z,12.96
2023-03-26T06:14:20.521Z,12.90
2023-03-26T06:18:21.205Z,12.97
2023-03-26T06:22:20.787Z,12.93
2023-03-26T06:26:20.884Z,12.91
2023-03-26T06:30:20.982Z,12.75
2023-03-26T06:34:21.662Z,12.67
2023-03-26T06:38:21.257Z,12.86
2023-03-26T06:42:21.369Z,12.98
2023-03-26T06:46:22.438Z,13.03
2023-03-26T06:50:21.237Z,13.08
2023-03-26T06:54:21.249Z,13.13
2023-03-26T06:58:21.581Z,13.18
2023-03-26T07:02:21.624Z,13.21
2023-03-26T07:06:21.654Z,13.24
2023-03-26T07:10:21.799Z,13.06
2023-03-26T07:14:22.144Z,12.93
2023-03-26T07:18:22.022Z,13.22
2023-03-26T07:22:22.438Z,13.29
2023-03-26T07:26:21.811Z,13.49
2023-03-26T07:30:21.929Z,13.56
2023-03-26T07:34:22.205Z,13.72
2023-03-26T07:38:22.059Z,13.76
2023-03-26T07:42:22.130Z,13.77
2023-03-26T07:50:52.491Z,13.81
2023-03-26T07:54:42.060Z,13.81
2023-03-26T07:58:42.332Z,13.90
2023-03-26T08:02:41.984Z,14.07
2023-03-26T08:11:01.669Z,14.31
2023-03-26T08:15:01.609Z,14.21
2023-03-26T08:19:01.581Z,14.23
2023-03-26T08:23:01.534Z,14.18
2023-03-26T08:27:01.509Z,14.17
2023-03-26T08:31:01.560Z,14.28
2023-03-26T08:35:01.436Z,14.42
2023-03-26T08:39:01.405Z,14.32
2023-03-26T08:43:01.711Z,14.52
2023-03-26T08:47:02.122Z,14.66
2023-03-26T08:51:01.595Z,14.27
2023-03-26T08:55:01.634Z,13.89
2023-03-26T08:59:01.458Z,14.21
2023-03-26T09:03:01.512Z,14.46
2023-03-26T09:07:01.274Z,14.31
2023-03-26T09:11:01.400Z,14.53
2023-03-26T09:15:01.405Z,14.72
2023-03-26T09:19:01.376Z,14.44
2023-03-26T09:23:01.241Z,14.65
2023-03-26T09:27:01.464Z,14.70
2023-03-26T09:31:01.450Z,14.82
2023-03-26T09:35:01.223Z,14.87
2023-03-26T09:39:01.099Z,15.01
2023-03-26T09:43:01.062Z,15.11
2023-03-26T09:47:01.468Z,15.25
2023-03-26T09:51:00.996Z,15.21
2023-03-26T09:55:01.475Z,15.27
2023-03-26T09:59:01.002Z,15.34
2023-03-26T10:03:00.949Z,15.45
2023-03-26T10:07:00.887Z,15.44
2023-03-26T10:11:00.987Z,15.42
2023-03-26T10:15:00.742Z,15.59
2023-03-26T10:19:00.927Z,15.48
2023-03-26T10:23:00.975Z,15.69
2023-03-26T10:27:08.767Z,15.86
2023-03-26T10:31:02.200Z,15.93
2023-03-26T10:35:01.332Z,15.39
2023-03-26T10:39:01.429Z,15.37
2023-03-26T10:43:01.598Z,15.59
2023-03-26T10:47:02.013Z,15.59
2023-03-26T10:51:01.738Z,15.74
2023-03-26T10:55:01.723Z,15.79
2023-03-26T10:59:01.698Z,15.87
2023-03-26T11:03:01.630Z,15.86
2023-03-26T11:07:02.772Z,15.96
2023-03-26T11:11:01.594Z,16.07
2023-03-26T11:19:21.665Z,15.94
2023-03-26T11:23:21.462Z,16.17
2023-03-26T11:27:23.750Z,16.14
2023-03-26T11:31:21.363Z,16.06
2023-03-26T11:35:40.639Z,15.89
2023-03-26T11:39:22.097Z,16.07
2023-03-26T11:43:21.533Z,16.18
2023-03-26T11:47:21.201Z,16.44
2023-03-26T11:51:21.391Z,16.50
2023-03-26T11:55:21.518Z,15.83
2023-03-26T11:59:22.002Z,16.17
2023-03-26T12:03:21.683Z,16.14
2023-03-26T12:07:21.641Z,16.27
2023-03-26T12:11:21.611Z,16.06
2023-03-26T12:15:21.502Z,16.28
2023-03-26T12:19:21.511Z,16.23
2023-03-26T12:23:21.556Z,16.29
2023-03-26T12:27:21.420Z,16.38
2023-03-26T12:31:21.441Z,16.41
2023-03-26T12:35:21.515Z,16.38
2023-03-26T12:40:07.770Z,16.29
2023-03-26T12:44:53.051Z,16.16
2023-03-26T12:47:59.882Z,16.17
2023-03-26T12:51:22.318Z,15.97
2023-03-26T12:55:21.321Z,16.10
2023-03-26T12:59:34.511Z,15.42
2023-03-26T13:03:32.045Z,15.56
2023-03-26T13:07:21.079Z,15.62
2023-03-26T13:11:21.076Z,15.45
2023-03-26T13:15:21.050Z,15.79
2023-03-26T13:19:20.978Z,15.90
2023-03-26T13:23:20.975Z,15.90
2023-03-26T13:27:20.961Z,15.96
2023-03-26T13:31:21.317Z,15.85
2023-03-26T13:35:21.484Z,15.87
2023-03-26T13:39:21.598Z,15.83
2023-03-26T13:43:22.366Z,15.83
2023-03-26T13:47:22.075Z,15.85
2023-03-26T13:51:22.220Z,15.83
2023-03-26T13:55:22.239Z,15.78
2023-03-26T13:59:22.374Z,15.74
2023-03-26T14:03:21.943Z,15.72
2023-03-26T14:07:21.885Z,15.70
2023-03-26T14:11:21.936Z,15.69
2023-03-26T14:15:21.876Z,15.10
2023-03-26T14:19:21.707Z,15.25
2023-03-26T14:23:21.801Z,15.38
2023-03-26T14:27:22.112Z,15.41
2023-03-26T14:31:21.660Z,15.45
2023-03-26T14:35:21.885Z,15.51
2023-03-26T14:39:21.792Z,15.49
2023-03-26T14:43:21.793Z,15.51
2023-03-26T14:47:22.279Z,15.55
2023-03-26T15:00:01.481Z,15.34
2023-03-26T15:04:01.321Z,15.23
2023-03-26T15:08:01.293Z,15.28
2023-03-26T15:12:13.193Z,15.28
2023-03-26T15:16:02.278Z,15.27
2023-03-26T15:20:01.712Z,15.08
2023-03-26T15:24:01.705Z,15.03
2023-03-26T15:28:01.191Z,15.01
2023-03-26T15:32:01.890Z,14.87
2023-03-26T15:36:01.265Z,14.65
2023-03-26T15:40:01.672Z,14.70
2023-03-26T15:44:23.310Z,14.38
2023-03-26T15:48:02.654Z,14.46
2023-03-26T15:52:01.629Z,14.51
2023-03-26T15:56:01.053Z,14.28
2023-03-26T16:00:01.090Z,14.38
2023-03-26T16:04:01.040Z,14.49
2023-03-26T16:08:01.128Z,14.66
2023-03-26T16:12:01.589Z,14.70
2023-03-26T16:16:01.490Z,14.58
2023-03-26T16:20:01.704Z,14.61
2023-03-26T16:24:01.585Z,14.39
2023-03-26T16:28:02.171Z,14.56
2023-03-26T16:32:01.933Z,14.46
2023-03-26T16:36:02.444Z,14.48
2023-03-26T16:40:02.214Z,14.42
2023-03-26T16:44:02.632Z,14.28
2023-03-26T16:48:02.575Z,13.96
2023-03-26T16:52:03.135Z,14.17
2023-03-26T16:56:03.121Z,14.28
2023-03-26T17:00:06.335Z,14.32
2023-03-26T17:04:03.166Z,14.34
2023-03-26T17:08:03.179Z,14.39
2023-03-26T17:12:03.150Z,14.28
2023-03-26T17:16:02.718Z,14.24
2023-03-26T17:20:02.751Z,13.94
2023-03-26T17:24:02.765Z,13.90
2023-03-26T17:28:03.136Z,13.80
2023-03-26T17:32:02.695Z,13.58
2023-03-26T17:36:02.695Z,13.56
2023-03-26T17:40:02.596Z,13.61
2023-03-26T17:44:02.578Z,13.55
2023-03-26T17:48:02.655Z,13.70
2023-03-26T17:52:02.493Z,13.73
2023-03-26T17:56:02.448Z,13.84
2023-03-26T18:00:02.430Z,13.87
2023-03-26T18:04:02.631Z,13.93
2023-03-26T18:08:02.358Z,13.97
2023-03-26T18:12:02.333Z,14.04
2023-03-26T18:16:02.394Z,14.07
2023-03-26T18:20:02.425Z,14.04
2023-03-26T18:24:02.504Z,14.08
2023-03-26T18:28:02.906Z,13.93
2023-03-26T18:32:12.322Z,13.76
2023-03-26T18:36:02.225Z,13.63
2023-03-26T18:40:02.208Z,13.70
2023-03-26T18:44:02.181Z,13.81
2023-03-26T18:48:02.334Z,13.89
2023-03-26T18:52:02.094Z,13.89
2023-03-26T18:56:02.218Z,13.89
2023-03-26T19:00:02.215Z,13.89
2023-03-26T19:04:02.726Z,13.83
2023-03-26T19:08:02.667Z,13.81
2023-03-26T19:12:02.824Z,13.89
2023-03-26T19:16:03.153Z,13.87
2023-03-26T19:20:03.200Z,13.89
2023-03-26T19:24:03.400Z,13.91
2023-03-26T19:28:04.286Z,13.79
2023-03-26T19:32:03.797Z,13.74
2023-03-26T19:36:04.186Z,13.68
2023-03-26T19:40:04.282Z,13.53
2023-03-26T19:44:04.673Z,13.59
2023-03-26T19:48:14.147Z,13.70
2023-03-26T19:52:05.746Z,13.80
2023-03-26T19:56:05.948Z,13.79
2023-03-26T20:00:04.492Z,13.74
2023-03-26T20:04:04.815Z,13.69
2023-03-26T20:08:04.320Z,13.72
2023-03-26T20:12:04.671Z,13.74
2023-03-26T20:16:04.819Z,13.68
2023-03-26T20:20:04.793Z,13.72
2023-03-26T20:24:04.428Z,13.69
2023-03-26T20:28:04.390Z,13.72
2023-03-26T20:32:04.781Z,13.52
2023-03-26T20:36:04.725Z,13.53
2023-03-26T20:40:04.312Z,13.55
2023-03-26T20:44:04.217Z,13.53
2023-03-26T20:48:04.205Z,13.52
2023-03-26T20:52:04.318Z,13.56
2023-03-26T20:56:04.309Z,13.41
2023-03-26T21:00:04.023Z,13.49
2023-03-26T21:04:03.990Z,13.52
2023-03-26T21:08:03.965Z,13.52
2023-03-26T21:12:04.203Z,13.49
2023-03-26T21:16:03.878Z,13.48
2023-03-26T21:20:03.847Z,13.48
2023-03-26T21:24:03.773Z,13.49
2023-03-26T21:28:03.819Z,13.48
2023-03-26T21:32:03.765Z,13.48
2023-03-26T21:36:03.953Z,13.46
2023-03-26T21:40:03.829Z,13.42
2023-03-26T21:44:04.083Z,13.42
2023-03-26T21:48:03.775Z,13.39
2023-03-26T21:52:03.915Z,13.34
2023-03-26T21:56:03.793Z,13.27
2023-03-26T22:00:03.946Z,13.28
2023-03-26T22:04:04.022Z,13.22
2023-03-26T22:08:03.850Z,13.27
2023-03-26T22:12:03.830Z,13.24
2023-03-26T22:16:03.874Z,13.24
2023-03-26T22:20:03.790Z,13.21
2023-03-26T22:24:03.913Z,13.24
2023-03-26T22:28:03.905Z,13.22
2023-03-26T22:32:15.810Z,13.24
2023-03-26T22:36:23.348Z,13.22
2023-03-26T22:40:23.600Z,13.14
2023-03-26T22:44:23.906Z,13.13
2023-03-26T22:48:23.530Z,13.15
2023-03-26T22:52:23.812Z,13.15
2023-03-26T22:56:23.891Z,13.17
2023-03-26T23:00:24.312Z,13.14
2023-03-26T23:04:30.322Z,13.17
2023-03-26T23:08:24.874Z,13.11
2023-03-26T23:12:23.807Z,13.07
2023-03-26T23:16:23.389Z,13.06
2023-03-26T23:20:23.385Z,13.01
2023-03-26T23:24:23.362Z,13.04
2023-03-26T23:28:23.494Z,13.00
2023-03-26T23:32:24.900Z,12.96
2023-03-26T23:36:23.702Z,12.93
2023-03-26T23:40:23.895Z,12.96
2023-03-26T23:44:23.921Z,12.97
2023-03-26T23:48:24.434Z,12.93
2023-03-26T23:52:24.342Z,12.91
2023-03-26T23:56:24.296Z,12.72
